createdAt,value
2022-11-22T00:00:49.355Z,96363.25
2022-11-22T00:03:16.066Z,96373.34
2022-11-22T00:05:42.734Z,96378.78
2022-11-22T00:08:09.464Z,96383.03
2022-11-22T00:10:36.234Z,96373.34
2022-11-22T00:13:03.429Z,96375.66
2022-11-22T00:15:30.638Z,96360.53
2022-11-22T00:17:57.614Z,96348.16
2022-11-22T00:20:24.394Z,96343.09
2022-11-22T00:22:51.039Z,96345.09
2022-11-22T00:25:18.021Z,96348.19
2022-11-22T00:27:44.804Z,96336.56
2022-11-22T00:30:11.762Z,96333.09
2022-11-22T00:32:38.493Z,96336.59
2022-11-22T00:35:05.748Z,96332.31
2022-11-22T00:37:32.475Z,96338.53
2022-11-22T00:39:59.297Z,96341.63
2022-11-22T00:42:26.152Z,96335.81
2022-11-22T00:47:30.685Z,96348.22
2022-11-22T00:49:57.369Z,96338.91
2022-11-22T00:52:24.020Z,96338.13
2022-11-22T00:54:54.703Z,96347.44
2022-11-22T00:57:21.609Z,96351.31
2022-11-22T00:59:48.249Z,96359.81
2022-11-22T01:02:15.001Z,96362.94
2022-11-22T01:04:41.743Z,96375.31
2022-11-22T01:07:09.941Z,96372.22
2022-11-22T01:09:36.700Z,96376.88
2022-11-22T01:12:03.504Z,96382.31
2022-11-22T01:14:30.270Z,96386.16
2022-11-22T01:16:56.943Z,96379.56
2022-11-22T01:19:23.612Z,96385.38
2022-11-22T01:21:50.240Z,96387.66
2022-11-22T01:24:16.914Z,96381.47
2022-11-22T01:26:43.584Z,96392.31
2022-11-22T01:29:10.249Z,96386.88
2022-11-22T01:31:36.989Z,96388.41
2022-11-22T01:34:05.956Z,96392.25
2022-11-22T01:36:32.618Z,96401.56
2022-11-22T01:38:59.256Z,96400.78
2022-11-22T01:43:58.808Z,96397.69
2022-11-22T01:46:39.688Z,96393.84
2022-11-22T01:51:51.563Z,96389.19
2022-11-22T01:54:22.848Z,96399.25
2022-11-22T01:56:56.465Z,96394.63
2022-11-22T01:59:28.801Z,96399.25
2022-11-22T02:01:56.299Z,96396.53
2022-11-22T02:04:24.927Z,96396.16
2022-11-22T02:07:08.208Z,96400.78
2022-11-22T02:09:37.684Z,96404.28
2022-11-22T02:12:06.577Z,96407.00
2022-11-22T02:14:34.523Z,96410.09
2022-11-22T02:17:01.193Z,96409.72
2022-11-22T02:19:45.710Z,96420.56
2022-11-22T02:22:21.666Z,96417.47
2022-11-22T02:24:57.168Z,96413.97
2022-11-22T02:27:24.373Z,96407.00
2022-11-22T02:29:51.328Z,96416.28
2022-11-22T02:32:18.019Z,96417.84
2022-11-22T02:34:49.781Z,96438.00
2022-11-22T02:37:22.599Z,96435.66
2022-11-22T02:39:53.767Z,96441.09
2022-11-22T02:42:20.657Z,96443.78
2022-11-22T02:44:47.304Z,96429.06
2022-11-22T02:47:14.036Z,96421.69
2022-11-22T02:49:40.703Z,96423.25
2022-11-22T02:52:07.320Z,96431.75
2022-11-22T02:54:34.001Z,96422.84
2022-11-22T02:57:03.216Z,96420.13
2022-11-22T03:02:03.368Z,96420.91
2022-11-22T03:04:30.452Z,96436.41
2022-11-22T03:06:59.376Z,96428.66
2022-11-22T03:09:27.700Z,96431.41
2022-11-22T03:11:55.171Z,96430.22
2022-11-22T03:14:22.098Z,96434.50
2022-11-22T03:16:49.327Z,96440.31
2022-11-22T03:19:16.171Z,96433.72
2022-11-22T03:21:43.517Z,96439.16
2022-11-22T03:24:11.079Z,96447.31
2022-11-22T03:26:37.894Z,96460.50
2022-11-22T03:29:05.358Z,96458.16
2022-11-22T03:31:32.077Z,96460.13
2022-11-22T03:33:58.761Z,96458.59
2022-11-22T03:36:25.437Z,96456.66
2022-11-22T03:38:52.098Z,96458.19
2022-11-22T03:41:18.833Z,96467.13
2022-11-22T03:43:45.573Z,96471.78
2022-11-22T03:46:15.503Z,96477.59
2022-11-22T03:48:42.403Z,96471.00
2022-11-22T03:51:09.227Z,96461.28
2022-11-22T03:53:35.940Z,96460.50
2022-11-22T03:56:02.611Z,96464.00
2022-11-22T03:58:29.337Z,96455.88
2022-11-22T04:00:56.548Z,96463.63
2022-11-22T04:03:23.282Z,96468.28
2022-11-22T04:05:49.929Z,96470.22
2022-11-22T04:08:16.534Z,96466.75
2022-11-22T04:10:43.179Z,96462.47
2022-11-22T04:13:09.866Z,96464.03
2022-11-22T04:15:37.458Z,96470.63
2022-11-22T04:18:04.131Z,96470.25
2022-11-22T04:20:49.788Z,96464.41
2022-11-22T04:23:19.313Z,96471.38
2022-11-22T04:25:51.244Z,96465.97
2022-11-22T04:28:24.516Z,96475.66
2022-11-22T04:31:16.331Z,96480.69
2022-11-22T04:33:42.975Z,96478.38
2022-11-22T04:36:13.297Z,96470.63
2022-11-22T04:38:40.245Z,96486.13
2022-11-22T04:41:06.886Z,96475.28
2022-11-22T04:43:52.223Z,96478.38
2022-11-22T04:46:18.881Z,96477.97
2022-11-22T04:51:41.871Z,96476.81
2022-11-22T04:54:08.537Z,96479.13
2022-11-22T04:56:35.187Z,96477.59
2022-11-22T04:59:01.904Z,96471.75
2022-11-22T05:01:28.555Z,96472.13
2022-11-22T05:03:55.253Z,96473.28
2022-11-22T05:06:21.919Z,96472.88
2022-11-22T05:08:48.561Z,96471.31
2022-11-22T05:11:15.210Z,96469.72
2022-11-22T05:16:15.771Z,96467.03
2022-11-22T05:18:42.668Z,96472.03
2022-11-22T05:21:12.661Z,96471.28
2022-11-22T05:23:54.777Z,96481.38
2022-11-22T05:26:27.599Z,96488.75
2022-11-22T05:28:54.487Z,96489.50
2022-11-22T05:34:00.103Z,96498.38
2022-11-22T05:36:27.971Z,96494.56
2022-11-22T05:38:54.962Z,96506.59
2022-11-22T05:41:21.693Z,96506.16
2022-11-22T05:43:48.337Z,96513.44
2022-11-22T05:46:24.998Z,96516.06
2022-11-22T05:48:53.494Z,96519.66
2022-11-22T05:51:22.493Z,96514.56
2022-11-22T05:53:49.301Z,96511.53
2022-11-22T05:56:22.049Z,96514.25
2022-11-22T05:58:49.107Z,96520.31
2022-11-22T06:01:23.201Z,96527.69
2022-11-22T06:03:50.463Z,96529.69
2022-11-22T06:06:17.632Z,96539.81
2022-11-22T06:08:47.069Z,96544.13
2022-11-22T06:11:25.747Z,96544.91
2022-11-22T06:14:00.722Z,96538.69
2022-11-22T06:16:27.624Z,96535.63
2022-11-22T06:18:55.211Z,96525.97
2022-11-22T06:21:25.842Z,96534.44
2022-11-22T06:23:54.250Z,96541.00
2022-11-22T06:29:00.772Z,96548.78
2022-11-22T06:31:28.082Z,96554.22
2022-11-22T06:33:57.000Z,96562.00
2022-11-22T06:36:26.270Z,96551.19
2022-11-22T06:38:53.020Z,96561.66
2022-11-22T06:41:22.155Z,96562.03
2022-11-22T06:43:51.369Z,96573.66
2022-11-22T06:46:20.346Z,96570.56
2022-11-22T06:48:47.529Z,96583.72
2022-11-22T06:51:16.719Z,96578.25
2022-11-22T06:53:48.609Z,96593.72
2022-11-22T06:56:33.475Z,96610.00
2022-11-22T07:01:49.324Z,96616.59
2022-11-22T07:04:16.224Z,96624.00
2022-11-22T07:09:32.263Z,96638.75
2022-11-22T07:12:00.040Z,96633.72
2022-11-22T07:14:27.055Z,96641.84
2022-11-22T07:16:53.748Z,96645.72
2022-11-22T07:19:20.629Z,96644.16
2022-11-22T07:21:47.542Z,96648.47
2022-11-22T07:26:46.866Z,96652.28
2022-11-22T07:29:13.878Z,96649.53
2022-11-22T07:31:40.943Z,96651.84
2022-11-22T07:34:07.627Z,96657.31
2022-11-22T07:36:34.914Z,96655.78
2022-11-22T07:39:03.546Z,96662.38
2022-11-22T07:41:30.351Z,96669.72
2022-11-22T07:43:58.172Z,96675.13
2022-11-22T07:46:31.641Z,96665.06
2022-11-22T07:48:59.542Z,96677.47
2022-11-22T07:51:27.681Z,96685.25
2022-11-22T07:53:55.935Z,96678.66
2022-11-22T07:56:23.331Z,96687.63
2022-11-22T07:58:49.923Z,96686.47
2022-11-22T08:01:18.542Z,96677.50
2022-11-22T08:03:45.589Z,96682.53
2022-11-22T08:06:13.524Z,96690.69
2022-11-22T08:08:40.175Z,96695.72
2022-11-22T08:11:08.204Z,96679.09
2022-11-22T08:13:35.627Z,96689.56
2022-11-22T08:16:06.414Z,96681.41
2022-11-22T08:18:34.621Z,96682.19
2022-11-22T08:21:13.183Z,96686.91
2022-11-22T08:23:41.411Z,96688.09
2022-11-22T08:26:11.117Z,96694.66
2022-11-22T08:28:37.801Z,96692.03
2022-11-22T08:31:08.619Z,96694.72
2022-11-22T08:33:35.320Z,96681.56
2022-11-22T08:36:02.633Z,96690.88
2022-11-22T08:38:29.301Z,96676.91
2022-11-22T08:40:56.221Z,96676.16
2022-11-22T08:43:22.985Z,96677.66
2022-11-22T08:45:54.649Z,96684.66
2022-11-22T08:48:22.576Z,96687.38
2022-11-22T08:50:57.788Z,96680.78
2022-11-22T08:53:25.335Z,96673.81
2022-11-22T08:55:52.655Z,96676.94
2022-11-22T09:00:53.969Z,96671.09
2022-11-22T09:03:20.716Z,96668.78
2022-11-22T09:08:36.633Z,96656.38
2022-11-22T09:11:10.002Z,96655.22
2022-11-22T09:13:37.159Z,96657.53
2022-11-22T09:16:09.213Z,96653.66
2022-11-22T09:18:36.268Z,96660.66
2022-11-22T09:23:39.750Z,96654.44
2022-11-22T09:26:09.524Z,96666.06
2022-11-22T09:28:36.574Z,96674.63
2022-11-22T09:31:15.085Z,96681.22
2022-11-22T09:33:45.240Z,96679.28
2022-11-22T09:36:17.255Z,96688.16
2022-11-22T09:38:43.968Z,96692.44
2022-11-22T09:41:16.556Z,96697.09
2022-11-22T09:46:44.801Z,96707.59
2022-11-22T09:49:35.274Z,96706.38
2022-11-22T09:52:05.247Z,96716.09
2022-11-22T09:54:45.138Z,96707.97
2022-11-22T09:57:21.827Z,96715.34
2022-11-22T09:59:55.064Z,96715.72
2022-11-22T10:02:58.878Z,96731.28
2022-11-22T10:05:32.422Z,96724.28
2022-11-22T10:08:16.448Z,96736.31
2022-11-22T10:10:43.960Z,96749.91
2022-11-22T10:13:27.837Z,96745.66
2022-11-22T10:16:07.682Z,96742.91
2022-11-22T10:18:46.293Z,96742.16
2022-11-22T10:21:15.344Z,96744.47
2022-11-22T10:23:44.070Z,96739.03
2022-11-22T10:26:22.392Z,96745.63
2022-11-22T10:29:20.092Z,96750.69
2022-11-22T10:32:25.741Z,96742.94
2022-11-22T10:35:14.295Z,96746.81
2022-11-22T10:37:47.076Z,96748.34
2022-11-22T10:40:25.720Z,96760.78
2022-11-22T10:43:04.462Z,96750.72
2022-11-22T10:45:42.154Z,96751.47
2022-11-22T10:51:33.088Z,96756.91
2022-11-22T10:54:03.462Z,96748.75
2022-11-22T10:56:38.824Z,96747.97
2022-11-22T10:59:38.578Z,96745.28
2022-11-22T11:02:23.444Z,96754.97
2022-11-22T11:04:53.145Z,96751.44
2022-11-22T11:07:23.962Z,96751.06
2022-11-22T11:10:10.914Z,96753.38
2022-11-22T11:12:50.631Z,96755.72
2022-11-22T11:15:37.861Z,96758.03
2022-11-22T11:18:19.946Z,96745.22
2022-11-22T11:20:48.035Z,96749.13
2022-11-22T11:23:16.285Z,96753.03
2022-11-22T11:25:45.560Z,96744.44
2022-11-22T11:28:17.695Z,96736.66
2022-11-22T11:30:48.226Z,96739.72
2022-11-22T11:36:02.995Z,96721.06
2022-11-22T11:38:35.902Z,96727.28
2022-11-22T11:41:21.292Z,96728.84
2022-11-22T11:43:49.332Z,96719.88
2022-11-22T11:46:18.056Z,96723.00
2022-11-22T11:48:45.366Z,96721.81
2022-11-22T11:51:17.796Z,96720.19
2022-11-22T11:54:05.866Z,96714.75
2022-11-22T11:56:45.290Z,96716.34
2022-11-22T11:59:15.659Z,96703.88
2022-11-22T12:01:53.647Z,96705.34
2022-11-22T12:04:25.575Z,96696.78
2022-11-22T12:07:18.227Z,96697.59
2022-11-22T12:09:48.029Z,96682.47
2022-11-22T12:12:51.518Z,96674.66
2022-11-22T12:15:27.710Z,96671.16
2022-11-22T12:18:33.491Z,96662.97
2022-11-22T12:21:37.368Z,96665.72
2022-11-22T12:27:14.827Z,96664.88
2022-11-22T12:29:46.330Z,96664.03
2022-11-22T12:32:24.355Z,96660.88
2022-11-22T12:34:56.981Z,96661.25
2022-11-22T12:40:27.200Z,96660.09
2022-11-22T12:43:05.488Z,96660.09
2022-11-22T12:45:53.328Z,96657.41
2022-11-22T12:48:44.571Z,96649.06
2022-11-22T12:54:09.203Z,96646.00
2022-11-22T12:56:58.377Z,96649.50
2022-11-22T13:00:02.851Z,96649.91
2022-11-22T13:02:39.237Z,96656.19
2022-11-22T13:05:13.728Z,96653.03
2022-11-22T13:08:17.640Z,96659.28
2022-11-22T13:10:49.887Z,96648.47
2022-11-22T13:13:38.739Z,96643.00
2022-11-22T13:16:10.466Z,96636.75
2022-11-22T13:18:45.192Z,96643.28
2022-11-22T13:21:30.044Z,96635.88
2022-11-22T13:24:27.497Z,96642.13
2022-11-22T13:27:11.767Z,96642.13
2022-11-22T13:29:41.535Z,96638.19
2022-11-22T13:32:13.919Z,96642.94
2022-11-22T13:34:58.779Z,96643.66
2022-11-22T13:37:26.341Z,96645.31
2022-11-22T13:39:53.257Z,96643.34
2022-11-22T13:42:27.711Z,96641.13
2022-11-22T13:49:59.945Z,96645.41
2022-11-22T13:52:50.933Z,96645.81
2022-11-22T13:55:30.628Z,96644.69
2022-11-22T13:58:23.271Z,96657.16
2022-11-22T14:00:50.913Z,96656.41
2022-11-22T14:03:26.750Z,96659.47
2022-11-22T14:05:57.315Z,96660.31
2022-11-22T14:08:35.486Z,96666.47
2022-11-22T14:13:59.810Z,96671.56
2022-11-22T14:16:40.101Z,96671.94
2022-11-22T14:19:31.686Z,96682.84
2022-11-22T14:25:14.146Z,96668.13
2022-11-22T14:28:08.590Z,96667.75
2022-11-22T14:30:44.680Z,96667.75
2022-11-22T14:33:17.433Z,96662.72
2022-11-22T14:36:09.690Z,96661.16
2022-11-22T14:38:37.088Z,96670.50
2022-11-22T14:41:28.361Z,96679.09
2022-11-22T14:46:58.044Z,96679.91
2022-11-22T14:49:46.747Z,96678.97
2022-11-22T14:52:26.398Z,96685.63
2022-11-22T14:54:58.103Z,96680.56
2022-11-22T14:57:26.962Z,96689.16
2022-11-22T15:03:09.869Z,96696.13
2022-11-22T15:09:21.752Z,96697.75
2022-11-22T15:09:53.057Z,96702.41
2022-11-22T15:12:24.684Z,96703.22
2022-11-22T15:57:27.516Z,96732.84
2022-11-22T15:59:54.930Z,96738.63
2022-11-22T16:02:25.534Z,96745.25
2022-11-22T16:06:08.553Z,96746.00
2022-11-22T16:07:49.060Z,96746.81
2022-11-22T16:10:25.868Z,96745.25
2022-11-22T16:12:54.390Z,96747.19
2022-11-22T16:15:26.136Z,96739.16
2022-11-22T16:21:04.949Z,96738.19
2022-11-22T16:23:34.114Z,96749.50
2022-11-22T16:29:47.069Z,96754.53
2022-11-22T16:32:15.483Z,96753.78
2022-11-22T16:34:43.518Z,96752.25
2022-11-22T16:37:37.676Z,96755.72
2022-11-22T16:40:06.415Z,96755.34
2022-11-22T16:45:06.611Z,96762.38
2022-11-22T16:47:33.281Z,96768.56
2022-11-22T16:49:59.974Z,96770.13
2022-11-22T16:52:26.594Z,96767.78
2022-11-22T16:54:53.254Z,96767.03
2022-11-22T16:57:19.900Z,96765.47
2022-11-22T16:59:46.579Z,96766.22
2022-11-22T17:02:15.859Z,96771.28
2022-11-22T17:04:45.926Z,96779.44
2022-11-22T17:07:13.661Z,96779.84
2022-11-22T17:09:40.629Z,96777.91
2022-11-22T17:12:22.618Z,96786.44
2022-11-22T17:14:51.059Z,96786.81
2022-11-22T17:17:18.913Z,96800.41
2022-11-22T17:19:53.046Z,96797.31
2022-11-22T17:22:20.789Z,96796.94
2022-11-22T17:24:47.421Z,96797.72
2022-11-22T17:27:14.560Z,96802.38
2022-11-22T17:29:56.999Z,96798.09
2022-11-22T17:35:00.658Z,96807.41
2022-11-22T17:37:29.603Z,96813.66
2022-11-22T17:39:56.190Z,96809.00
2022-11-22T17:42:24.305Z,96813.25
2022-11-22T17:44:50.966Z,96815.97
2022-11-22T17:49:55.561Z,96823.75
2022-11-22T17:52:22.238Z,96826.88
2022-11-22T17:54:48.874Z,96824.91
2022-11-22T17:59:52.773Z,96823.94
2022-11-22T18:02:19.495Z,96831.09
2022-11-22T18:04:46.137Z,96829.94
2022-11-22T18:07:20.015Z,96831.88
2022-11-22T18:09:52.941Z,96840.81
2022-11-22T18:12:25.788Z,96842.00
2022-11-22T18:14:58.521Z,96845.50
2022-11-22T18:17:35.255Z,96835.00
2022-11-22T18:20:08.426Z,96830.75
2022-11-22T18:25:20.338Z,96840.84
2022-11-22T18:27:47.008Z,96849.34
2022-11-22T18:30:14.468Z,96851.31
2022-11-22T18:32:41.095Z,96854.03
2022-11-22T18:35:08.104Z,96857.13
2022-11-22T18:37:34.803Z,96853.63
2022-11-22T18:40:01.474Z,96854.41
2022-11-22T18:42:28.126Z,96869.94
2022-11-22T18:44:54.794Z,96870.38
2022-11-22T18:47:21.496Z,96866.84
2022-11-22T18:49:48.352Z,96870.38
2022-11-22T18:52:17.821Z,96875.78
2022-11-22T18:54:44.978Z,96871.50
2022-11-22T18:57:11.807Z,96877.66
2022-11-22T18:59:38.500Z,96884.66
2022-11-22T19:02:05.130Z,96877.44
2022-11-22T19:04:32.015Z,96875.94
2022-11-22T19:06:59.615Z,96878.81
2022-11-22T19:09:26.238Z,96876.16
2022-11-22T19:11:58.403Z,96875.81
2022-11-22T19:14:27.241Z,96880.88
2022-11-22T19:16:53.973Z,96881.25
2022-11-22T19:19:20.686Z,96883.97
2022-11-22T19:21:47.355Z,96887.41
2022-11-22T19:24:14.022Z,96887.06
2022-11-22T19:26:40.689Z,96883.94
2022-11-22T19:29:07.376Z,96891.34
2022-11-22T19:31:34.099Z,96896.78
2022-11-22T19:34:00.835Z,96886.66
2022-11-22T19:36:36.393Z,96884.34
2022-11-22T19:39:05.264Z,96885.47
2022-11-22T19:41:32.251Z,96888.97
2022-11-22T19:43:59.070Z,96890.53
2022-11-22T19:46:26.439Z,96884.69
2022-11-22T19:48:55.193Z,96885.47
2022-11-22T19:51:22.799Z,96885.09
2022-11-22T19:53:53.578Z,96895.56
2022-11-22T19:56:21.165Z,96900.66
2022-11-22T19:58:52.426Z,96899.09
2022-11-22T20:01:20.271Z,96891.28
2022-11-22T20:03:51.980Z,96899.06
2022-11-22T20:06:18.889Z,96909.56
2022-11-22T20:08:45.645Z,96905.28
2022-11-22T20:11:15.003Z,96909.94
2022-11-22T20:13:44.548Z,96918.47
2022-11-22T20:16:23.408Z,96909.16
2022-11-22T20:18:56.849Z,96910.31
2022-11-22T20:21:24.636Z,96907.22
2022-11-22T20:23:52.205Z,96908.41
2022-11-22T20:26:19.987Z,96912.28
2022-11-22T20:28:47.639Z,96915.38
2022-11-22T20:31:19.316Z,96915.38
2022-11-22T20:33:48.999Z,96920.81
2022-11-22T20:36:26.929Z,96918.47
2022-11-22T20:38:54.208Z,96913.06
2022-11-22T20:41:23.913Z,96918.50
2022-11-22T20:43:50.701Z,96912.22
2022-11-22T20:46:20.279Z,96926.19
2022-11-22T20:48:48.292Z,96923.84
2022-11-22T20:51:19.020Z,96937.06
2022-11-22T20:53:46.250Z,96936.31
2022-11-22T20:56:14.211Z,96935.53
2022-11-22T20:58:41.510Z,96942.09
2022-11-22T21:01:11.898Z,96940.16
2022-11-22T21:03:38.661Z,96940.88
2022-11-22T21:06:05.668Z,96940.88
2022-11-22T21:08:33.689Z,96940.84
2022-11-22T21:11:07.241Z,96946.66
2022-11-22T21:13:34.594Z,96942.78
2022-11-22T21:16:21.574Z,96941.63
2022-11-22T21:18:51.700Z,96938.47
2022-11-22T21:21:23.343Z,96939.31
2022-11-22T21:23:52.076Z,96938.50
2022-11-22T21:26:19.215Z,96948.94
2022-11-22T21:28:45.944Z,96945.41
2022-11-22T21:31:12.565Z,96955.56
2022-11-22T21:33:39.356Z,96961.75
2022-11-22T21:36:06.868Z,96965.22
2022-11-22T21:38:38.657Z,96961.72
2022-11-22T21:41:37.671Z,96967.88
2022-11-22T21:43:56.436Z,96968.31
2022-11-22T21:46:23.630Z,96971.69
2022-11-22T21:48:50.730Z,96973.56
2022-11-22T21:51:17.645Z,96973.47
2022-11-22T21:53:44.520Z,96964.50
2022-11-22T21:56:11.250Z,96966.44
2022-11-22T21:58:37.937Z,96967.03
2022-11-22T22:01:10.964Z,96968.50
2022-11-22T22:03:40.335Z,96974.78
2022-11-22T22:06:07.503Z,96973.16
2022-11-22T22:08:34.478Z,96974.59
2022-11-22T22:11:04.089Z,96978.47
2022-11-22T22:13:31.139Z,96974.44
2022-11-22T22:16:00.289Z,96982.63
2022-11-22T22:18:35.170Z,96979.16
2022-11-22T22:21:03.975Z,96980.34
2022-11-22T22:23:30.846Z,96977.72
2022-11-22T22:26:01.883Z,96983.47
2022-11-22T22:28:30.236Z,96979.91
2022-11-22T22:31:10.937Z,96984.44
2022-11-22T22:33:40.412Z,96980.28
2022-11-22T22:38:41.021Z,96977.56
2022-11-22T22:41:10.556Z,96978.72
2022-11-22T22:43:39.875Z,96982.97
2022-11-22T22:46:15.534Z,96979.94
2022-11-22T22:51:17.133Z,96993.91
2022-11-22T22:53:45.029Z,96996.19
2022-11-22T22:56:12.964Z,97001.63
2022-11-22T23:01:13.432Z,96994.50
2022-11-22T23:03:40.552Z,96991.44
2022-11-22T23:06:09.290Z,96993.75
2022-11-22T23:08:37.127Z,97000.00
2022-11-22T23:13:41.444Z,96998.41
2022-11-22T23:16:11.720Z,96990.75
2022-11-22T23:18:41.484Z,96993.41
2022-11-22T23:21:10.564Z,96998.19
2022-11-22T23:23:37.234Z,97004.03
2022-11-22T23:26:06.136Z,97009.03
2022-11-22T23:28:33.351Z,97011.41
2022-11-22T23:31:05.967Z,97009.34
2022-11-22T23:33:32.680Z,97011.84
2022-11-22T23:36:06.448Z,97006.44
2022-11-22T23:38:34.861Z,97008.81
2022-11-22T23:41:01.866Z,97010.84
2022-11-22T23:43:29.023Z,97006.78
2022-11-22T23:45:56.067Z,97003.75
2022-11-22T23:48:22.751Z,97004.50
2022-11-22T23:50:49.344Z,97013.84
2022-11-22T23:53:15.973Z,97017.38
2022-11-22T23:55:43.051Z,97003.44
2022-11-22T23:58:09.756Z,97002.41
